createdAt,value
2023-02-11T09:05:36.145Z,30.3
2023-02-11T09:15:42.577Z,29.2
2023-02-11T09:26:27.030Z,33.4
2023-02-11T09:32:36.831Z,32.8
2023-02-11T09:42:49.865Z,33.4
2023-02-11T09:53:02.377Z,31.3
2023-02-11T10:03:15.008Z,33.2
2023-02-11T10:13:27.195Z,32.6
2023-02-11T10:23:38.944Z,32.3
2023-02-11T10:33:50.967Z,32.6
2023-02-11T10:44:02.879Z,32.1
2023-02-11T10:54:13.927Z,31.2
2023-02-11T11:04:23.512Z,30.9
2023-02-11T11:14:32.724Z,31.1
2023-02-11T11:24:42.615Z,31.2
2023-02-11T11:34:51.042Z,30.7
2023-02-11T11:44:57.693Z,30.1
2023-02-11T11:55:04.466Z,29.6
2023-02-11T12:05:08.943Z,25.6
2023-02-11T12:15:13.381Z,26.9
2023-02-11T12:25:18.732Z,24
2023-02-11T12:35:21.874Z,22.2
2023-02-11T12:45:23.160Z,20.8
2023-02-11T12:55:23.519Z,20.7
2023-02-11T13:05:22.977Z,20.4
2023-02-11T13:15:22.799Z,20.9
2023-02-11T13:25:23.249Z,20.7
2023-02-11T13:35:22.847Z,20
2023-02-11T13:45:22.513Z,20.2
2023-02-11T13:55:22.200Z,20.3
2023-02-11T14:05:22.228Z,20.7
2023-02-11T14:15:22.668Z,20.5
2023-02-11T14:25:22.944Z,20.8
2023-02-11T14:35:23.411Z,19.8
2023-02-11T14:45:22.908Z,19.8
2023-02-11T14:55:22.376Z,19.8
2023-02-11T15:05:07.652Z,21.8
2023-02-11T15:15:08.873Z,21.1
2023-02-11T15:25:09.383Z,21.3
2023-02-11T15:35:09.761Z,16
2023-02-11T15:45:10.470Z,20.9
2023-02-11T15:55:10.523Z,16
2023-02-11T16:05:11.429Z,21.4
2023-02-11T16:15:12.885Z,16
2023-02-11T16:25:17.480Z,21
2023-02-11T16:35:18.300Z,20.7
2023-02-11T16:45:21.129Z,20.6
2023-02-11T16:55:23.704Z,20.8
2023-02-11T17:05:26.005Z,21
2023-02-11T17:15:26.490Z,20.8
2023-02-11T17:25:28.069Z,20.9
2023-02-11T17:35:29.428Z,20.7
2023-02-11T17:45:31.016Z,20.8
2023-02-11T17:55:32.629Z,20.6
2023-02-11T18:05:34.069Z,20.6
2023-02-11T18:15:35.384Z,20.8
2023-02-11T18:25:36.394Z,20.8
2023-02-11T18:35:38.380Z,20.4
2023-02-11T18:45:39.858Z,21.1
2023-02-11T18:55:41.129Z,20.7
2023-02-11T19:05:42.519Z,20.8
2023-02-11T19:15:44.568Z,20.4
2023-02-11T19:25:45.049Z,20.5
2023-02-11T19:35:46.350Z,20.2
2023-02-11T19:45:47.788Z,20.5
2023-02-11T19:55:49.408Z,20.6
2023-02-11T20:05:50.742Z,21.1
2023-02-11T20:15:52.004Z,20.3
2023-02-11T20:25:53.540Z,20.2
2023-02-11T20:35:54.626Z,20.9
2023-02-11T20:45:55.973Z,20.4
2023-02-11T20:55:57.199Z,20.4
2023-02-11T21:05:10.087Z,20.6
2023-02-11T21:15:12.185Z,20.3
2023-02-11T21:25:14.354Z,20.8
2023-02-11T21:35:16.715Z,20.2
2023-02-11T21:45:19.041Z,20.8
2023-02-11T21:55:21.418Z,21.5
2023-02-11T22:05:24.545Z,20.9
2023-02-11T22:15:28.090Z,20.9
2023-02-11T22:25:31.804Z,20.9
2023-02-11T22:35:35.180Z,21.1
2023-02-11T22:45:38.794Z,20.3
2023-02-11T22:55:42.326Z,20.4
2023-02-11T23:05:44.749Z,21.1
2023-02-11T23:15:46.842Z,20.4
2023-02-11T23:25:49.191Z,20.4
2023-02-11T23:35:51.337Z,21
2023-02-11T23:45:54.068Z,20.4
2023-02-11T23:55:56.148Z,20.8
